CGMPW CYHZ-CYQM
Flight info
| Callsign | CGMPW |
|---|---|
| Flight time | N/A |
| Altitude | 12000 |
| Route | KELNO |
| Aircraft | PC24/L-SBDGIRWY/LB2 |
Departure
| Time | 2026-05-07 17:39 |
|---|---|
| Airport | Halifax / Stanfield International Airport (CYHZ) |
Arrival
| Time | N/A |
|---|---|
| Airport | Greater Moncton Roméo LeBlanc International Airport (CYQM) |
| Time | Latitude | Longitude | Altitude | Speed | Heading |
|---|---|---|---|---|---|
| 2026-05-07 17:30 | 44.88158 | -63.51729 | 454 ft | 0 kts | 306° |
| 2026-05-07 17:35 | 44.88189 | -63.51715 | 454 ft | 10 kts | 84° |
| 2026-05-07 17:35 | 44.88163 | -63.51663 | 454 ft | 5 kts | 113° |
| 2026-05-07 17:35 | 44.88156 | -63.51635 | 454 ft | 1 kts | 110° |
| 2026-05-07 17:35 | 44.88147 | -63.51603 | 454 ft | 17 kts | 111° |
| 2026-05-07 17:36 | 44.88173 | -63.51456 | 454 ft | 17 kts | 34° |
| 2026-05-07 17:36 | 44.88257 | -63.51376 | 453 ft | 12 kts | 34° |
| 2026-05-07 17:36 | 44.88320 | -63.51313 | 453 ft | 11 kts | 36° |
| 2026-05-07 17:36 | 44.88386 | -63.51224 | 453 ft | 13 kts | 63° |
| 2026-05-07 17:37 | 44.88373 | -63.51129 | 453 ft | 1 kts | 124° |
| 2026-05-07 17:37 | 44.88372 | -63.51129 | 453 ft | 0 kts | 124° |
| 2026-05-07 17:38 | 44.88341 | -63.51067 | 453 ft | 16 kts | 127° |
| 2026-05-07 17:38 | 44.88237 | -63.51082 | 452 ft | 32 kts | 213° |
| 2026-05-07 17:38 | 44.87809 | -63.51498 | 456 ft | 116 kts | 213° |
| 2026-05-07 17:39 | 44.86953 | -63.52231 | 838 ft | 154 kts | 207° |
| 2026-05-07 17:39 | 44.86141 | -63.52971 | 2414 ft | 123 kts | 219° |
| 2026-05-07 17:39 | 44.85406 | -63.53709 | 3610 ft | 135 kts | 218° |
| 2026-05-07 17:39 | 44.84530 | -63.54499 | 4449 ft | 166 kts | 217° |
| 2026-05-07 17:40 | 44.83513 | -63.55380 | 5556 ft | 173 kts | 217° |
| 2026-05-07 17:40 | 44.82388 | -63.56368 | 6304 ft | 212 kts | 216° |
| 2026-05-07 17:40 | 44.81031 | -63.57595 | 6847 ft | 250 kts | 216° |
| 2026-05-07 17:40 | 44.79510 | -63.59025 | 7384 ft | 281 kts | 217° |
| 2026-05-07 17:41 | 44.77849 | -63.60613 | 7910 ft | 281 kts | 217° |
| 2026-05-07 17:41 | 44.76331 | -63.62065 | 8400 ft | 248 kts | 216° |
| 2026-05-07 17:41 | 44.74957 | -63.63386 | 8928 ft | 242 kts | 216° |
| 2026-05-07 17:41 | 44.73505 | -63.64804 | 9461 ft | 267 kts | 216° |
| 2026-05-07 17:42 | 44.71943 | -63.66362 | 9968 ft | 281 kts | 217° |
| 2026-05-07 17:42 | 44.70333 | -63.67988 | 10454 ft | 288 kts | 217° |
| 2026-05-07 17:42 | 44.68702 | -63.69631 | 10939 ft | 288 kts | 217° |
| 2026-05-07 17:42 | 44.67072 | -63.71261 | 11446 ft | 288 kts | 217° |
| 2026-05-07 17:43 | 44.65421 | -63.72904 | 11917 ft | 294 kts | 217° |
| 2026-05-07 17:43 | 44.63749 | -63.74570 | 12039 ft | 297 kts | 217° |
| 2026-05-07 17:43 | 44.62142 | -63.76353 | 12007 ft | 293 kts | 228° |
| 2026-05-07 17:43 | 44.61139 | -63.78838 | 12012 ft | 294 kts | 244° |
| 2026-05-07 17:44 | 44.60566 | -63.81601 | 12016 ft | 298 kts | 257° |
| 2026-05-07 17:44 | 44.60522 | -63.84535 | 12009 ft | 304 kts | 270° |
| 2026-05-07 17:44 | 44.61030 | -63.87417 | 12016 ft | 314 kts | 284° |
| 2026-05-07 17:44 | 44.62121 | -63.90117 | 12017 ft | 323 kts | 299° |
| 2026-05-07 17:45 | 44.63904 | -63.92160 | 11989 ft | 348 kts | 326° |
| 2026-05-07 17:45 | 44.66306 | -63.93015 | 12003 ft | 363 kts | 346° |
| 2026-05-07 17:45 | 44.68841 | -63.93268 | 12010 ft | 368 kts | 350° |
| 2026-05-07 17:45 | 44.71391 | -63.93555 | 12008 ft | 365 kts | 346° |
| 2026-05-07 17:46 | 44.73847 | -63.94241 | 12013 ft | 358 kts | 338° |
| 2026-05-07 17:46 | 44.76229 | -63.95240 | 11982 ft | 356 kts | 336° |
| 2026-05-07 17:46 | 44.78596 | -63.96228 | 11983 ft | 355 kts | 338° |
| 2026-05-07 17:46 | 44.81019 | -63.97032 | 11991 ft | 359 kts | 341° |
| 2026-05-07 17:47 | 44.83467 | -63.97810 | 11773 ft | 363 kts | 340° |
| 2026-05-07 17:47 | 44.85892 | -63.98678 | 11395 ft | 356 kts | 338° |
| 2026-05-07 17:47 | 44.88267 | -63.99540 | 11023 ft | 351 kts | 339° |
| 2026-05-07 17:47 | 44.90574 | -64.00413 | 10677 ft | 344 kts | 334° |
| 2026-05-07 17:48 | 44.92954 | -64.01043 | 10220 ft | 355 kts | 352° |
| 2026-05-07 17:48 | 44.95367 | -64.00188 | 9661 ft | 374 kts | 20° |
| 2026-05-07 17:48 | 44.97391 | -63.97871 | 9064 ft | 379 kts | 49° |
| 2026-05-07 17:48 | 44.98553 | -63.94582 | 8456 ft | 371 kts | 78° |
| 2026-05-07 17:49 | 44.98688 | -63.91036 | 7876 ft | 353 kts | 101° |
| 2026-05-07 17:49 | 44.98385 | -63.87649 | 7288 ft | 344 kts | 103° |
| 2026-05-07 17:49 | 44.98153 | -63.84299 | 6725 ft | 341 kts | 98° |
| 2026-05-07 17:49 | 44.98154 | -63.80949 | 6163 ft | 340 kts | 90° |
| 2026-05-07 17:50 | 44.98516 | -63.77659 | 5569 ft | 339 kts | 77° |
| 2026-05-07 17:50 | 44.99373 | -63.74560 | 4967 ft | 338 kts | 65° |
| 2026-05-07 17:50 | 45.00389 | -63.71628 | 4423 ft | 335 kts | 65° |
| 2026-05-07 17:50 | 45.01300 | -63.68611 | 3847 ft | 333 kts | 70° |
| 2026-05-07 17:51 | 45.02071 | -63.65565 | 3286 ft | 325 kts | 71° |
| 2026-05-07 17:51 | 45.02846 | -63.62662 | 3345 ft | 303 kts | 69° |
| 2026-05-07 17:51 | 45.03650 | -63.59807 | 3738 ft | 323 kts | 70° |
| 2026-05-07 17:51 | 45.04478 | -63.56800 | 3992 ft | 331 kts | 70° |
| 2026-05-07 17:52 | 45.05303 | -63.53757 | 3992 ft | 326 kts | 70° |
| 2026-05-07 17:52 | 45.06067 | -63.50970 | 3967 ft | 287 kts | 70° |
| 2026-05-07 17:52 | 45.06497 | -63.48395 | 3970 ft | 254 kts | 92° |
| 2026-05-07 17:52 | 45.06377 | -63.46058 | 3974 ft | 229 kts | 108° |
| 2026-05-07 17:53 | 45.05908 | -63.44065 | 3974 ft | 200 kts | 124° |
| 2026-05-07 17:53 | 45.05238 | -63.42489 | 3969 ft | 176 kts | 136° |
| 2026-05-07 17:53 | 45.04543 | -63.41122 | 3969 ft | 170 kts | 134° |
| 2026-05-07 17:53 | 45.03789 | -63.39826 | 3873 ft | 170 kts | 150° |
| 2026-05-07 17:54 | 45.02789 | -63.39024 | 3661 ft | 162 kts | 169° |
| 2026-05-07 17:54 | 45.01721 | -63.38757 | 3446 ft | 152 kts | 188° |
| 2026-05-07 17:54 | 45.00722 | -63.39030 | 3247 ft | 144 kts | 205° |
| 2026-05-07 17:54 | 44.99859 | -63.39665 | 3045 ft | 141 kts | 219° |
| 2026-05-07 17:55 | 44.99029 | -63.40426 | 2855 ft | 142 kts | 218° |
| 2026-05-07 17:55 | 44.98217 | -63.41211 | 2656 ft | 140 kts | 219° |
| 2026-05-07 17:55 | 44.97429 | -63.41989 | 2470 ft | 137 kts | 218° |
| 2026-05-07 17:55 | 44.96659 | -63.42749 | 2291 ft | 134 kts | 217° |
| 2026-05-07 17:56 | 44.95899 | -63.43505 | 2110 ft | 133 kts | 217° |
| 2026-05-07 17:56 | 44.95134 | -63.44260 | 1931 ft | 134 kts | 216° |
| 2026-05-07 17:56 | 44.94381 | -63.45006 | 1881 ft | 128 kts | 216° |
| 2026-05-07 17:56 | 44.93686 | -63.45690 | 1862 ft | 116 kts | 216° |
| 2026-05-07 17:57 | 44.93039 | -63.46331 | 1869 ft | 114 kts | 217° |
| 2026-05-07 17:57 | 44.92601 | -63.46765 | 1826 ft | 118 kts | 216° |
| 2026-05-07 17:57 | 44.91642 | -63.47701 | 1404 ft | 135 kts | 214° |
| 2026-05-07 17:57 | 44.90882 | -63.48474 | 1018 ft | 123 kts | 211° |
| 2026-05-07 17:58 | 44.90224 | -63.49121 | 1325 ft | 123 kts | 213° |
| 2026-05-07 17:58 | 44.89524 | -63.49806 | 1447 ft | 122 kts | 216° |
| 2026-05-07 17:58 | 44.88776 | -63.50542 | 1060 ft | 142 kts | 212° |
| 2026-05-07 17:58 | 44.87969 | -63.51337 | 1313 ft | 154 kts | 214° |
| 2026-05-07 17:59 | 44.86983 | -63.52318 | 1800 ft | 189 kts | 219° |
| 2026-05-07 17:59 | 44.86318 | -63.54019 | 2183 ft | 221 kts | 261° |
| 2026-05-07 17:59 | 44.86718 | -63.56235 | 2572 ft | 257 kts | 299° |
| 2026-05-07 17:59 | 44.88161 | -63.57915 | 2936 ft | 286 kts | 332° |
| 2026-05-07 18:00 | 44.90196 | -63.58357 | 2946 ft | 311 kts | 3° |
| 2026-05-07 18:00 | 44.92291 | -63.57455 | 2944 ft | 319 kts | 20° |
| 2026-05-07 18:00 | 44.94348 | -63.56174 | 2947 ft | 319 kts | 22° |
| 2026-05-07 18:00 | 44.96213 | -63.54911 | 2924 ft | 278 kts | 23° |
| 2026-05-07 18:01 | 44.97860 | -63.53745 | 2926 ft | 254 kts | 24° |
| 2026-05-07 18:01 | 44.99355 | -63.52574 | 2929 ft | 239 kts | 30° |
| 2026-05-07 18:01 | 45.00691 | -63.51240 | 2975 ft | 232 kts | 33° |
| 2026-05-07 18:01 | 45.01979 | -63.49902 | 2976 ft | 228 kts | 33° |
| 2026-05-07 18:02 | 45.04509 | -63.47288 | 2970 ft | 223 kts | 32° |
| 2026-05-07 18:02 | 45.05758 | -63.46049 | 2963 ft | 221 kts | 32° |
| 2026-05-07 18:02 | 45.07023 | -63.44828 | 2950 ft | 219 kts | 31° |
| 2026-05-07 18:03 | 45.08294 | -63.43635 | 2915 ft | 219 kts | 30° |
| 2026-05-07 18:03 | 45.09581 | -63.42473 | 2875 ft | 219 kts | 28° |
| 2026-05-07 18:03 | 45.10886 | -63.41359 | 2834 ft | 218 kts | 27° |
| 2026-05-07 18:03 | 45.12201 | -63.40286 | 2812 ft | 216 kts | 29° |
| 2026-05-07 18:04 | 45.13141 | -63.38657 | 2700 ft | 220 kts | 76° |
| 2026-05-07 18:04 | 45.12993 | -63.36632 | 2824 ft | 199 kts | 128° |
| 2026-05-07 18:04 | 45.11994 | -63.35585 | 2995 ft | 171 kts | 175° |
| 2026-05-07 18:04 | 45.10811 | -63.35405 | 2997 ft | 178 kts | 182° |
| 2026-05-07 18:05 | 45.09527 | -63.35286 | 2993 ft | 192 kts | 182° |
| 2026-05-07 18:05 | 45.08174 | -63.35170 | 2995 ft | 196 kts | 182° |
| 2026-05-07 18:05 | 45.06808 | -63.35060 | 2988 ft | 197 kts | 183° |
| 2026-05-07 18:05 | 45.05431 | -63.34960 | 2991 ft | 198 kts | 184° |
| 2026-05-07 18:06 | 45.04149 | -63.35443 | 2988 ft | 190 kts | 213° |
| 2026-05-07 18:06 | 45.03051 | -63.36434 | 2987 ft | 181 kts | 217° |
| 2026-05-07 18:06 | 45.02108 | -63.37339 | 2962 ft | 148 kts | 218° |
| 2026-05-07 18:06 | 45.01317 | -63.38115 | 2954 ft | 131 kts | 220° |
| 2026-05-07 18:07 | 45.00599 | -63.38839 | 2966 ft | 124 kts | 219° |
| 2026-05-07 18:07 | 44.99887 | -63.39543 | 2931 ft | 125 kts | 220° |
| 2026-05-07 18:07 | 44.99167 | -63.40256 | 2840 ft | 130 kts | 220° |
| 2026-05-07 18:07 | 44.98430 | -63.40983 | 2690 ft | 127 kts | 219° |
| 2026-05-07 18:08 | 44.97731 | -63.41688 | 2498 ft | 124 kts | 219° |
| 2026-05-07 18:08 | 44.97038 | -63.42372 | 2288 ft | 117 kts | 218° |
| 2026-05-07 18:08 | 44.96369 | -63.43028 | 2042 ft | 116 kts | 217° |
| 2026-05-07 18:08 | 44.95713 | -63.43677 | 1826 ft | 114 kts | 215° |
| 2026-05-07 18:09 | 44.95052 | -63.44341 | 1630 ft | 118 kts | 214° |
| 2026-05-07 18:09 | 44.94379 | -63.45005 | 1461 ft | 119 kts | 214° |
| 2026-05-07 18:09 | 44.93704 | -63.45672 | 1323 ft | 114 kts | 213° |
| 2026-05-07 18:09 | 44.93047 | -63.46326 | 1139 ft | 119 kts | 211° |
| 2026-05-07 18:10 | 44.92360 | -63.46999 | 971 ft | 120 kts | 211° |
| 2026-05-07 18:10 | 44.91641 | -63.47706 | 822 ft | 131 kts | 211° |
| 2026-05-07 18:10 | 44.90909 | -63.48444 | 731 ft | 126 kts | 206° |
| 2026-05-07 18:10 | 44.90184 | -63.49155 | 525 ft | 131 kts | 208° |
| 2026-05-07 18:11 | 44.89415 | -63.49841 | 706 ft | 140 kts | 207° |
| 2026-05-07 18:11 | 44.88901 | -63.50382 | 570 ft | 132 kts | 211° |
| 2026-05-07 18:11 | 44.88072 | -63.51225 | 452 ft | 66 kts | 212° |
| 2026-05-07 18:11 | 44.87732 | -63.51533 | 456 ft | 52 kts | 215° |
| 2026-05-07 18:12 | 44.87495 | -63.51814 | 453 ft | 37 kts | 237° |
| 2026-05-07 18:12 | 44.87503 | -63.52116 | 455 ft | 33 kts | 315° |
| 2026-05-07 18:12 | 44.87593 | -63.52239 | 455 ft | 0 kts | 358° |